createdAt,value
2022-08-01T00:00:09.959Z,61.70
2022-08-01T00:00:41.994Z,62.30
2022-08-01T00:01:14.318Z,62.40
2022-08-01T00:01:46.155Z,62.70
2022-08-01T00:02:18.014Z,62.60
2022-08-01T00:02:50.100Z,62.20
2022-08-01T00:03:21.955Z,62.60
2022-08-01T00:03:53.842Z,62.60
2022-08-01T00:04:25.666Z,61.90
2022-08-01T00:04:57.906Z,62.40
2022-08-01T00:05:29.789Z,62.10
2022-08-01T00:06:01.561Z,61.90
2022-08-01T00:06:33.386Z,61.90
2022-08-01T00:07:05.187Z,62.50
2022-08-01T00:07:37.789Z,62.80
2022-08-01T00:08:09.564Z,62.20
2022-08-01T00:08:41.378Z,61.90
2022-08-01T00:09:23.709Z,62.00
2022-08-01T00:09:56.273Z,62.30
2022-08-01T00:10:28.118Z,61.50
2022-08-01T00:11:02.740Z,61.50
2022-08-01T00:11:34.848Z,61.50
2022-08-01T00:12:07.005Z,62.40
2022-08-01T00:12:39.121Z,62.00
2022-08-01T00:13:10.974Z,61.40
2022-08-01T00:13:42.774Z,61.80
2022-08-01T00:14:46.967Z,61.30
2022-08-01T00:15:19.062Z,62.10
2022-08-01T00:15:53.771Z,61.70
2022-08-01T00:16:26.232Z,62.00
2022-08-01T00:18:05.538Z,61.40
2022-08-01T00:19:09.654Z,63.20
2022-08-01T00:19:41.842Z,61.50
2022-08-01T00:20:47.392Z,61.30
2022-08-01T00:22:56.431Z,62.50
2022-08-01T00:23:28.235Z,61.80
2022-08-01T00:24:00.260Z,61.90
2022-08-01T00:24:32.089Z,62.20
2022-08-01T00:35:37.523Z,61.40
2022-08-01T00:36:09.293Z,61.20
2022-08-01T00:36:41.166Z,61.40
2022-08-01T00:37:15.946Z,62.00
2022-08-01T00:37:47.993Z,61.10
2022-08-01T00:38:19.775Z,61.50
2022-08-01T00:39:56.236Z,60.90
2022-08-01T00:40:28.054Z,62.90
2022-08-01T00:42:10.024Z,61.30
2022-08-01T00:43:15.960Z,61.00
2022-08-01T00:43:47.929Z,63.00
2022-08-01T00:44:19.728Z,63.20
2022-08-01T00:44:51.571Z,63.40
2022-08-01T00:45:55.572Z,63.10
2022-08-01T00:47:00.059Z,61.50
2022-08-01T00:47:31.907Z,62.40
2022-08-01T00:48:03.888Z,62.00
2022-08-01T00:48:35.700Z,62.10
2022-08-01T00:49:10.414Z,62.70
2022-08-01T00:49:43.151Z,63.00
2022-08-01T00:50:15.184Z,61.70
2022-08-01T00:50:47.438Z,62.80
2022-08-01T00:51:19.406Z,61.70
2022-08-01T00:51:51.315Z,62.60
2022-08-01T00:52:23.168Z,62.60
2022-08-01T00:52:56.264Z,62.00
2022-08-01T00:53:28.137Z,62.40
2022-08-01T00:54:20.199Z,62.40
2022-08-01T00:54:52.452Z,62.50
2022-08-01T00:55:24.892Z,61.70
2022-08-01T00:55:57.564Z,62.30
2022-08-01T00:56:29.944Z,62.80
2022-08-01T00:57:01.866Z,62.70
2022-08-01T00:58:03.268Z,61.90
2022-08-01T00:58:26.720Z,61.80
2022-08-01T00:58:59.506Z,62.40
2022-08-01T00:59:32.206Z,62.80
2022-08-01T01:00:05.933Z,62.60
2022-08-01T01:00:52.255Z,62.40
2022-08-01T01:01:26.034Z,62.70
2022-08-01T01:02:14.513Z,62.20
2022-08-01T01:02:47.232Z,63.20
2022-08-01T01:03:19.339Z,62.70
2022-08-01T01:04:00.381Z,62.80
2022-08-01T01:04:32.280Z,62.20
2022-08-01T01:05:04.879Z,62.80
2022-08-01T01:05:46.330Z,62.80
2022-08-01T01:06:55.086Z,62.10
2022-08-01T01:07:49.741Z,62.60
2022-08-01T01:08:33.117Z,62.50
2022-08-01T01:09:16.632Z,62.60
2022-08-01T01:10:09.806Z,62.70
2022-08-01T01:11:06.854Z,62.90
2022-08-01T01:12:11.166Z,62.80
2022-08-01T01:12:55.677Z,62.90
2022-08-01T01:13:50.227Z,63.00
2022-08-01T01:14:34.457Z,63.20
2022-08-01T01:15:22.558Z,63.30
2022-08-01T01:16:01.427Z,63.30
2022-08-01T01:16:36.402Z,63.30
2022-08-01T01:17:09.980Z,63.50
2022-08-01T01:18:03.547Z,63.40
2022-08-01T01:18:52.433Z,63.60
2022-08-01T01:19:29.140Z,63.20
2022-08-01T01:20:03.692Z,62.80
2022-08-01T01:20:39.753Z,64.10
2022-08-01T01:21:22.341Z,63.60
2022-08-01T01:22:24.135Z,63.70
2022-08-01T01:23:10.977Z,63.40
2022-08-01T01:23:58.960Z,63.60
2022-08-01T01:25:10.674Z,64.20
2022-08-01T01:26:08.078Z,63.70
2022-08-01T01:27:01.983Z,63.50
2022-08-01T01:28:01.978Z,63.80
2022-08-01T01:28:36.680Z,61.90
2022-08-01T01:29:29.130Z,64.50
2022-08-01T01:30:02.721Z,63.80
2022-08-01T01:30:36.368Z,63.90
2022-08-01T01:31:11.641Z,64.10
2022-08-01T01:31:50.766Z,64.00
2022-08-01T01:32:30.822Z,64.00
2022-08-01T01:33:07.520Z,65.60
2022-08-01T01:33:47.427Z,64.00
2022-08-01T01:34:22.149Z,64.00
2022-08-01T01:34:57.426Z,64.10
2022-08-01T01:35:33.760Z,64.00
2022-08-01T01:36:11.790Z,64.00
2022-08-01T01:36:46.427Z,64.30
2022-08-01T01:37:23.057Z,64.30
2022-08-01T01:38:05.716Z,64.10
2022-08-01T01:38:45.106Z,64.00
2022-08-01T01:39:18.755Z,64.00
2022-08-01T01:39:54.369Z,64.20
2022-08-01T01:40:27.785Z,64.30
2022-08-01T01:41:01.534Z,64.30
2022-08-01T01:41:35.027Z,64.40
2022-08-01T01:42:08.750Z,62.10
2022-08-01T01:42:42.712Z,64.50
2022-08-01T01:43:16.698Z,64.50
2022-08-01T01:43:51.539Z,64.50
2022-08-01T01:44:23.640Z,64.30
2022-08-01T01:44:56.754Z,64.50
2022-08-01T01:45:30.435Z,64.40
2022-08-01T01:46:04.642Z,64.50
2022-08-01T01:46:37.547Z,64.50
2022-08-01T01:47:09.902Z,64.40
2022-08-01T01:47:44.709Z,64.60
2022-08-01T01:48:20.303Z,62.50
2022-08-01T01:48:54.957Z,64.50
2022-08-01T01:49:29.473Z,64.50
2022-08-01T01:50:03.044Z,65.10
2022-08-01T01:50:36.814Z,64.50
2022-08-01T01:51:09.513Z,64.50
2022-08-01T01:51:49.382Z,64.50
2022-08-01T01:52:34.790Z,64.60
2022-08-01T01:53:15.254Z,64.60
2022-08-01T01:53:50.365Z,64.60
2022-08-01T01:54:30.937Z,64.60
2022-08-01T01:55:07.630Z,64.60
2022-08-01T01:55:49.655Z,64.80
2022-08-01T01:56:23.793Z,64.70
2022-08-01T01:57:00.532Z,64.60
2022-08-01T01:57:36.585Z,64.60
2022-08-01T01:58:10.887Z,64.80
2022-08-01T01:58:44.320Z,64.90
2022-08-01T01:59:22.720Z,64.80
2022-08-01T01:59:59.497Z,64.70
2022-08-01T02:00:34.246Z,64.80
2022-08-01T02:01:14.427Z,64.80
2022-08-01T02:02:05.446Z,64.80
2022-08-01T02:02:39.220Z,64.90
2022-08-01T02:03:13.471Z,65.00
2022-08-01T02:03:47.242Z,65.00
2022-08-01T02:04:20.935Z,65.10
2022-08-01T02:04:55.740Z,65.10
2022-08-01T02:05:29.004Z,65.00
2022-08-01T02:06:03.084Z,65.10
2022-08-01T02:06:36.265Z,65.00
2022-08-01T02:07:11.387Z,65.00
2022-08-01T02:07:44.913Z,65.10
2022-08-01T02:08:18.283Z,65.00
2022-08-01T02:08:51.070Z,65.10
2022-08-01T02:09:25.347Z,65.40
2022-08-01T02:09:59.235Z,65.10
2022-08-01T02:10:32.990Z,65.20
2022-08-01T02:11:21.753Z,65.00
2022-08-01T02:12:07.621Z,65.20
2022-08-01T02:12:43.529Z,65.20
2022-08-01T02:13:16.919Z,65.20
2022-08-01T02:13:59.451Z,65.40
2022-08-01T02:14:36.409Z,65.10
2022-08-01T02:15:10.283Z,65.30
2022-08-01T02:15:59.208Z,65.30
2022-08-01T02:16:40.573Z,65.20
2022-08-01T02:17:16.412Z,65.50
2022-08-01T02:17:50.542Z,65.30
2022-08-01T02:18:23.942Z,65.40
2022-08-01T02:18:56.726Z,65.20
2022-08-01T02:19:28.674Z,65.20
2022-08-01T02:20:00.915Z,65.20
2022-08-01T09:35:30.790Z,70.90
2022-08-01T09:36:03.618Z,71.60
2022-08-01T09:36:57.158Z,72.40
2022-08-01T09:37:37.531Z,72.30
2022-08-01T09:38:23.905Z,72.30
2022-08-01T10:16:13.506Z,68.80
2022-08-01T10:53:23.926Z,67.80
2022-08-01T10:54:09.834Z,68.80
2022-08-01T10:58:08.523Z,69.50
2022-08-01T11:11:02.625Z,67.40
2022-08-01T11:12:01.300Z,67.40
2022-08-01T11:36:12.692Z,65.50
2022-08-01T11:37:00.146Z,66.30
2022-08-01T11:37:32.113Z,66.80
2022-08-01T11:38:29.307Z,67.00
2022-08-01T11:39:01.391Z,67.30
2022-08-01T11:39:38.260Z,67.40
2022-08-01T11:40:23.018Z,66.40
2022-08-01T11:41:16.357Z,66.60
2022-08-01T11:41:49.497Z,66.60
2022-08-01T11:57:04.099Z,65.10
2022-08-01T12:03:40.591Z,64.70
2022-08-01T12:04:17.754Z,65.00
2022-08-01T12:05:01.814Z,64.50
2022-08-01T12:05:37.717Z,65.10
2022-08-01T12:06:27.119Z,64.80
2022-08-01T12:07:13.385Z,64.30
2022-08-01T12:07:50.007Z,65.00
2022-08-01T12:08:30.124Z,65.50
2022-08-01T12:13:45.672Z,64.30
2022-08-01T12:16:09.703Z,64.40
2022-08-01T12:16:41.568Z,63.60
2022-08-01T12:22:08.005Z,62.20
2022-08-01T12:26:43.314Z,62.60
2022-08-01T12:29:31.891Z,63.30
2022-08-01T12:35:11.593Z,63.20
2022-08-01T12:35:45.311Z,62.80
2022-08-01T12:37:03.764Z,63.60
2022-08-01T12:37:49.433Z,62.80
2022-08-01T12:38:23.922Z,63.30
2022-08-01T12:38:57.523Z,63.50
2022-08-01T12:39:36.308Z,63.30
2022-08-01T12:40:52.975Z,62.60
2022-08-01T12:43:07.838Z,59.50
2022-08-01T12:43:41.500Z,59.00
2022-08-01T12:44:17.164Z,59.40
2022-08-01T12:50:26.402Z,58.60
2022-08-01T12:51:01.369Z,58.50
2022-08-01T12:51:33.517Z,59.40
2022-08-01T13:08:55.512Z,57.80
2022-08-01T13:10:32.966Z,57.40
2022-08-01T13:13:48.438Z,57.50
2022-08-01T13:28:15.800Z,55.40
2022-08-01T13:55:01.046Z,53.90
2022-08-01T14:12:59.538Z,53.40
2022-08-01T14:13:36.974Z,54.00
2022-08-01T14:14:41.353Z,53.20
2022-08-01T14:28:07.075Z,53.10
2022-08-01T14:28:39.322Z,53.50
2022-08-01T14:29:11.114Z,53.20
2022-08-01T14:29:54.577Z,53.40
2022-08-01T14:30:35.129Z,53.40
2022-08-01T14:31:07.296Z,53.90
2022-08-01T14:31:39.163Z,53.80
2022-08-01T14:32:10.940Z,54.00
2022-08-01T14:32:42.841Z,53.60
2022-08-01T14:33:15.305Z,53.90
2022-08-01T14:33:47.211Z,53.50
2022-08-01T14:34:19.001Z,53.40
2022-08-01T14:34:50.838Z,52.70
2022-08-01T14:35:22.711Z,52.80
2022-08-01T14:36:01.635Z,52.70
2022-08-01T14:37:10.862Z,53.40
2022-08-01T14:39:25.981Z,52.80
2022-08-01T15:09:08.256Z,51.20
2022-08-01T15:09:42.553Z,52.30
2022-08-01T15:12:56.546Z,50.00
2022-08-01T15:13:28.313Z,50.20
2022-08-01T15:14:32.571Z,50.10
2022-08-01T15:15:37.146Z,51.10
2022-08-01T15:44:15.329Z,48.60
2022-08-01T15:46:47.039Z,49.00
2022-08-01T15:47:18.858Z,49.00
2022-08-01T15:47:50.643Z,48.40
2022-08-01T15:48:22.428Z,48.60
2022-08-01T16:30:55.736Z,48.10
2022-08-01T16:33:46.938Z,47.20
2022-08-01T16:35:36.511Z,47.20
2022-08-01T16:36:09.402Z,47.30
2022-08-01T16:36:50.118Z,47.40
2022-08-01T16:37:21.942Z,48.50
2022-08-01T16:37:53.755Z,48.00
2022-08-01T16:42:27.601Z,47.30
2022-08-01T17:00:56.571Z,46.80
2022-08-01T19:03:48.695Z,51.00
2022-08-01T19:39:07.039Z,52.00
2022-08-01T19:47:56.052Z,50.90
2022-08-01T20:20:18.218Z,51.70
2022-08-01T20:20:51.818Z,50.20
2022-08-01T20:28:29.359Z,51.60
2022-08-01T20:29:37.349Z,52.20
2022-08-01T20:34:06.605Z,50.90
2022-08-01T20:34:39.685Z,52.50
2022-08-01T20:39:02.019Z,52.40
2022-08-01T20:39:38.215Z,52.10
2022-08-01T20:40:12.285Z,51.60
2022-08-01T20:41:18.988Z,51.00
2022-08-01T20:41:59.391Z,50.90
2022-08-01T20:42:34.999Z,52.60
2022-08-01T20:43:40.390Z,52.60
2022-08-01T20:44:49.518Z,50.50
2022-08-01T20:45:56.847Z,51.20
2022-08-01T20:46:29.695Z,51.40
2022-08-01T20:47:04.866Z,50.90
2022-08-01T20:47:39.726Z,51.90
2022-08-01T20:48:12.167Z,52.60
2022-08-01T20:48:47.656Z,51.40
2022-08-01T20:49:52.292Z,52.30
2022-08-01T20:50:52.773Z,51.60
2022-08-01T20:51:26.792Z,51.10
2022-08-01T20:51:59.183Z,51.50
2022-08-01T20:52:33.890Z,52.20
2022-08-01T20:53:06.529Z,51.40
2022-08-01T20:53:42.409Z,51.60
2022-08-01T20:54:14.284Z,51.70
2022-08-01T20:54:46.403Z,52.10
2022-08-01T20:55:18.438Z,51.80
2022-08-01T20:55:59.513Z,51.40
2022-08-01T20:56:56.927Z,51.60
2022-08-01T20:57:31.254Z,51.40
2022-08-01T20:58:04.314Z,51.40
2022-08-01T20:58:36.080Z,51.50
2022-08-01T20:59:55.379Z,51.40
2022-08-01T21:00:25.649Z,50.80
2022-08-01T21:01:02.466Z,51.40
2022-08-01T21:01:45.350Z,51.50
2022-08-01T21:02:36.041Z,51.40
2022-08-01T21:03:23.518Z,51.40
2022-08-01T21:04:14.259Z,51.30
2022-08-01T21:04:54.356Z,51.50
2022-08-01T21:05:37.126Z,51.50
2022-08-01T21:06:16.251Z,51.50
2022-08-01T21:06:55.895Z,51.40
2022-08-01T21:07:33.335Z,51.40
2022-08-01T21:08:16.259Z,51.30
2022-08-01T21:08:54.726Z,51.30
2022-08-01T21:09:36.829Z,51.30
2022-08-01T21:10:15.281Z,51.30
2022-08-01T21:10:47.942Z,51.40
2022-08-01T21:11:28.307Z,51.40
2022-08-01T21:12:05.048Z,51.40
2022-08-01T21:12:54.014Z,51.50
2022-08-01T21:13:40.521Z,51.40
2022-08-01T21:14:18.403Z,51.40
2022-08-01T21:14:57.233Z,51.40
2022-08-01T21:15:57.460Z,51.30
2022-08-01T21:16:47.392Z,51.40
2022-08-01T21:17:33.934Z,51.40
2022-08-01T21:18:30.414Z,51.40
2022-08-01T21:19:21.421Z,51.40
2022-08-01T21:19:55.517Z,51.50
2022-08-01T21:20:33.033Z,51.40
2022-08-01T21:21:10.295Z,51.90
2022-08-01T21:21:50.279Z,51.30
2022-08-01T21:22:36.335Z,51.40
2022-08-01T21:23:17.235Z,51.50
2022-08-01T21:24:06.484Z,51.50
2022-08-01T21:24:58.041Z,51.40
2022-08-01T21:25:34.519Z,51.50
2022-08-01T21:26:12.234Z,51.40
2022-08-01T21:26:45.979Z,51.50
2022-08-01T21:27:21.741Z,51.50
2022-08-01T21:28:06.087Z,51.50
2022-08-01T21:28:39.810Z,51.50
2022-08-01T21:29:12.457Z,51.60
2022-08-01T21:29:48.009Z,51.50
2022-08-01T21:30:19.905Z,51.60
2022-08-01T21:30:56.633Z,51.50
2022-08-01T21:31:40.854Z,51.60
2022-08-01T21:32:15.939Z,51.60
2022-08-01T21:32:49.131Z,51.70
2022-08-01T21:33:23.766Z,51.60
2022-08-01T21:34:02.944Z,51.60
2022-08-01T21:34:38.227Z,51.60
2022-08-01T21:35:16.407Z,51.60
2022-08-01T21:35:55.605Z,51.60
2022-08-01T21:36:29.341Z,51.60
2022-08-01T21:37:01.701Z,51.50
2022-08-01T21:37:36.149Z,51.60
2022-08-01T21:38:08.349Z,51.50
2022-08-01T21:38:40.982Z,51.60
2022-08-01T21:39:13.490Z,51.50
2022-08-01T21:39:47.441Z,51.50
2022-08-01T21:40:25.948Z,51.60
2022-08-01T21:41:03.503Z,51.60
2022-08-01T21:41:56.361Z,51.40
2022-08-01T21:42:28.875Z,51.60
2022-08-01T21:43:02.240Z,51.50
2022-08-01T21:43:35.127Z,51.60
2022-08-01T21:44:10.902Z,51.80
2022-08-01T21:44:46.198Z,51.60
2022-08-01T21:45:24.773Z,51.60
2022-08-01T21:45:58.486Z,51.60
2022-08-01T21:46:31.664Z,51.60
2022-08-01T21:47:03.535Z,51.60
2022-08-01T21:47:36.432Z,51.60
2022-08-01T21:48:10.750Z,51.70
2022-08-01T21:48:44.879Z,51.70
2022-08-01T21:49:16.749Z,51.70
2022-08-01T21:49:48.621Z,51.60
2022-08-01T21:50:21.625Z,51.60
2022-08-01T21:51:01.106Z,51.60
2022-08-01T21:51:45.604Z,51.70
2022-08-01T21:52:24.086Z,51.60
2022-08-01T21:53:07.241Z,51.80
2022-08-01T21:54:05.356Z,51.70
2022-08-01T21:55:04.034Z,51.80
2022-08-01T21:55:51.566Z,51.70
2022-08-01T21:56:36.069Z,51.70
2022-08-01T21:57:30.102Z,51.60
2022-08-01T21:58:40.232Z,51.70
2022-08-01T21:59:24.046Z,51.70
2022-08-01T22:00:07.443Z,51.60
2022-08-01T22:00:44.497Z,51.70
2022-08-01T22:01:52.365Z,51.60
2022-08-01T22:02:30.907Z,51.70
2022-08-01T22:03:22.205Z,51.60
2022-08-01T22:03:58.827Z,51.70
2022-08-01T22:04:48.227Z,51.70
2022-08-01T22:05:25.507Z,51.70
2022-08-01T22:06:20.178Z,51.70
2022-08-01T22:06:54.148Z,52.20
2022-08-01T22:07:27.488Z,52.10
2022-08-01T22:08:02.219Z,51.70
2022-08-01T22:08:35.824Z,51.60
2022-08-01T22:09:10.173Z,51.60
2022-08-01T22:09:46.059Z,51.70
2022-08-01T22:10:19.877Z,51.80
2022-08-01T22:11:00.283Z,51.70
2022-08-01T22:11:35.382Z,51.70
2022-08-01T22:12:07.904Z,51.70
2022-08-01T22:12:40.142Z,51.80
2022-08-01T22:13:12.185Z,51.80
2022-08-01T22:13:44.066Z,51.90
2022-08-01T22:14:18.380Z,51.90
2022-08-01T22:14:53.991Z,51.90
2022-08-01T22:15:44.414Z,51.60
2022-08-01T22:16:17.439Z,51.70
2022-08-01T22:16:50.133Z,51.80
2022-08-01T22:17:23.845Z,51.80
2022-08-01T22:17:56.331Z,51.80
2022-08-01T22:18:28.388Z,51.80
2022-08-01T22:19:03.285Z,51.80
2022-08-01T22:19:44.400Z,51.70
2022-08-01T22:20:23.141Z,51.90
2022-08-01T22:20:55.795Z,51.70
2022-08-01T22:21:28.352Z,51.80
2022-08-01T22:22:02.186Z,51.80
2022-08-01T22:22:51.604Z,51.60
2022-08-01T22:23:24.522Z,51.70
2022-08-01T22:23:57.447Z,51.80
2022-08-01T22:24:30.165Z,51.80
2022-08-01T22:25:02.564Z,51.70
2022-08-01T22:25:35.102Z,51.80
2022-08-01T22:26:09.413Z,51.90
2022-08-01T22:26:44.522Z,51.90
2022-08-01T22:28:06.612Z,51.80
2022-08-01T22:28:19.037Z,52.70
2022-08-01T22:28:51.975Z,51.80
2022-08-01T22:29:28.314Z,51.90
2022-08-01T22:30:06.551Z,51.80
2022-08-01T22:30:42.362Z,51.80
2022-08-01T22:31:16.393Z,51.80
2022-08-01T22:31:49.374Z,51.90
2022-08-01T22:32:34.673Z,51.80
2022-08-01T22:33:16.947Z,52.00
2022-08-01T22:33:49.218Z,52.00
2022-08-01T22:34:21.172Z,51.80
2022-08-01T22:34:55.451Z,52.00
2022-08-01T22:35:29.059Z,52.00
2022-08-01T22:36:02.399Z,52.00
2022-08-01T22:36:34.352Z,52.50
2022-08-01T22:37:14.933Z,51.90
2022-08-01T22:37:57.338Z,51.90
2022-08-01T22:38:29.557Z,51.90
2022-08-01T22:39:01.442Z,51.90
2022-08-01T22:39:33.322Z,51.70
2022-08-01T22:40:14.880Z,52.00
2022-08-01T22:41:25.253Z,51.90
2022-08-01T22:42:02.741Z,52.10
2022-08-01T22:42:55.143Z,52.10
2022-08-01T22:43:33.272Z,52.00
2022-08-01T22:44:10.131Z,52.10
2022-08-01T22:44:59.707Z,52.10
2022-08-01T22:45:48.290Z,52.00
2022-08-01T22:46:29.318Z,52.00
2022-08-01T22:47:09.278Z,52.10
2022-08-01T22:47:49.870Z,52.00
2022-08-01T22:48:34.720Z,52.20
2022-08-01T22:49:25.311Z,52.10
2022-08-01T22:50:36.377Z,52.20
2022-08-01T22:51:27.657Z,52.10
2022-08-01T22:52:11.884Z,52.20
2022-08-01T22:52:55.124Z,52.20
2022-08-01T22:53:48.045Z,52.10
2022-08-01T22:54:34.998Z,52.20
2022-08-01T22:55:09.116Z,52.30
2022-08-01T22:55:58.276Z,52.10
2022-08-01T22:56:37.757Z,52.10
2022-08-01T22:57:24.726Z,52.10
2022-08-01T22:58:03.565Z,52.20
2022-08-01T22:58:35.544Z,52.20
2022-08-01T22:59:14.741Z,52.20
2022-08-01T22:59:59.174Z,52.20
2022-08-01T23:00:35.249Z,52.20
2022-08-01T23:01:12.563Z,52.20
2022-08-01T23:01:53.658Z,52.10
2022-08-01T23:02:29.092Z,52.30
2022-08-01T23:03:14.495Z,52.10
2022-08-01T23:03:49.518Z,52.30
2022-08-01T23:04:37.355Z,52.20
2022-08-01T23:05:14.924Z,52.30
2022-08-01T23:06:02.989Z,52.30
2022-08-01T23:06:49.959Z,52.80
2022-08-01T23:07:32.190Z,52.30
2022-08-01T23:08:05.281Z,52.40
2022-08-01T23:08:48.415Z,52.30
2022-08-01T23:09:21.689Z,52.50
2022-08-01T23:09:55.452Z,52.40
2022-08-01T23:10:27.474Z,52.30
2022-08-01T23:11:05.115Z,52.40
2022-08-01T23:11:38.086Z,53.60
2022-08-01T23:12:10.978Z,52.40
2022-08-01T23:12:44.920Z,52.30
2022-08-01T23:13:19.499Z,52.40
2022-08-01T23:13:52.287Z,52.20
2022-08-01T23:14:26.411Z,52.20
2022-08-01T23:15:00.710Z,52.30
2022-08-01T23:15:35.348Z,52.30
2022-08-01T23:16:08.317Z,52.40
2022-08-01T23:16:41.410Z,52.40
2022-08-01T23:17:27.087Z,52.40
2022-08-01T23:18:04.642Z,52.40
2022-08-01T23:18:37.498Z,52.40
2022-08-01T23:19:17.315Z,52.40
2022-08-01T23:19:51.098Z,52.40
2022-08-01T23:20:23.833Z,52.40
2022-08-01T23:21:01.582Z,52.40
2022-08-01T23:21:37.618Z,52.30
2022-08-01T23:22:13.987Z,52.40
2022-08-01T23:22:46.949Z,52.30
2022-08-01T23:23:31.387Z,52.30
2022-08-01T23:24:06.837Z,52.40
2022-08-01T23:24:42.854Z,52.40
2022-08-01T23:25:36.749Z,52.30
2022-08-01T23:26:11.039Z,52.20
2022-08-01T23:26:43.670Z,52.40
2022-08-01T23:27:25.675Z,52.40
2022-08-01T23:28:18.403Z,52.40
2022-08-01T23:28:51.478Z,52.40
2022-08-01T23:29:27.783Z,52.50
2022-08-01T23:30:01.159Z,52.60
2022-08-01T23:30:34.997Z,52.50
2022-08-01T23:31:07.445Z,52.40
2022-08-01T23:32:03.163Z,52.40
2022-08-01T23:32:31.077Z,52.50
2022-08-01T23:33:03.409Z,52.60
2022-08-01T23:33:35.177Z,52.50
2022-08-01T23:34:06.975Z,52.70
2022-08-01T23:34:38.820Z,52.50
2022-08-01T23:35:10.675Z,52.60
2022-08-01T23:35:43.006Z,52.80
2022-08-01T23:36:17.328Z,52.60
2022-08-01T23:36:49.140Z,52.40
2022-08-01T23:37:21.384Z,52.50
2022-08-01T23:37:53.958Z,52.60
2022-08-01T23:38:25.971Z,52.60
2022-08-01T23:38:57.857Z,52.70
2022-08-01T23:39:29.750Z,52.60
2022-08-01T23:40:01.571Z,52.60
2022-08-01T23:40:34.887Z,52.50
2022-08-01T23:41:14.748Z,52.30
2022-08-01T23:41:57.396Z,52.40
2022-08-01T23:42:30.616Z,52.40
2022-08-01T23:43:04.748Z,52.50
2022-08-01T23:43:36.582Z,52.50
2022-08-01T23:44:09.967Z,52.50
2022-08-01T23:44:42.132Z,52.50
2022-08-01T23:45:14.199Z,52.60
2022-08-01T23:46:03.771Z,52.70
2022-08-01T23:46:37.281Z,52.70
2022-08-01T23:47:09.724Z,52.80
2022-08-01T23:47:46.773Z,52.70
2022-08-01T23:48:18.771Z,52.80
2022-08-01T23:48:50.706Z,52.60
2022-08-01T23:49:22.687Z,52.60
2022-08-01T23:49:54.653Z,53.60
2022-08-01T23:50:26.972Z,52.80
2022-08-01T23:51:00.771Z,52.80
2022-08-01T23:51:34.024Z,52.80
2022-08-01T23:52:06.895Z,52.80
2022-08-01T23:52:48.435Z,52.50
2022-08-01T23:53:21.684Z,52.80
2022-08-01T23:53:53.601Z,52.80
2022-08-01T23:54:26.920Z,53.00
2022-08-01T23:54:58.885Z,52.80
2022-08-01T23:55:31.521Z,52.70
2022-08-01T23:56:09.076Z,52.80
2022-08-01T23:56:40.958Z,52.80
2022-08-01T23:57:13.460Z,52.90
2022-08-01T23:57:47.839Z,52.80
2022-08-01T23:58:19.649Z,52.90
2022-08-01T23:58:51.477Z,53.50
2022-08-01T23:59:23.307Z,53.00
2022-08-01T23:59:55.151Z,52.90
